WMT756 LIPR-LATI
Flight info
| Callsign | WMT756 |
|---|---|
| Flight time | N/A |
| Altitude | 35000 |
| Route | ANC DCT ERITU DCT VAPUP DCT PETAK |
| Aircraft | A21N/M-SDE2E3FGHIRWXY/LB1 |
Departure
| Time | N/A |
|---|---|
| Airport | Federico Fellini International Airport (LIPR) |
Arrival
| Time | 2026-04-27 14:40 |
|---|---|
| Airport | Tirana International Airport Mother Teresa (LATI) |
| Time | Latitude | Longitude | Altitude | Speed | Heading |
|---|---|---|---|---|---|
| 2026-04-27 14:29 | 41.52530 | 19.50468 | 11986 ft | 277 kts | 148° |
| 2026-04-27 14:30 | 41.50829 | 19.51677 | 11987 ft | 277 kts | 156° |
| 2026-04-27 14:30 | 41.49057 | 19.52584 | 11899 ft | 278 kts | 162° |
| 2026-04-27 14:30 | 41.47188 | 19.53285 | 11467 ft | 279 kts | 166° |
| 2026-04-27 14:30 | 41.45271 | 19.53846 | 10879 ft | 286 kts | 169° |
| 2026-04-27 14:31 | 41.43285 | 19.54336 | 10201 ft | 296 kts | 170° |
| 2026-04-27 14:31 | 41.41259 | 19.54791 | 9556 ft | 304 kts | 171° |
| 2026-04-27 14:31 | 41.39151 | 19.55240 | 8874 ft | 312 kts | 171° |
| 2026-04-27 14:31 | 41.36973 | 19.55693 | 8176 ft | 320 kts | 171° |
| 2026-04-27 14:32 | 41.34756 | 19.56150 | 7490 ft | 327 kts | 171° |
| 2026-04-27 14:32 | 41.32524 | 19.56608 | 7177 ft | 320 kts | 171° |
| 2026-04-27 14:32 | 41.30375 | 19.57048 | 6963 ft | 306 kts | 171° |
| 2026-04-27 14:32 | 41.28321 | 19.57469 | 6710 ft | 293 kts | 171° |
| 2026-04-27 14:33 | 41.26329 | 19.57876 | 6492 ft | 280 kts | 170° |
| 2026-04-27 14:33 | 41.24439 | 19.58262 | 6307 ft | 270 kts | 170° |
| 2026-04-27 14:33 | 41.22602 | 19.58636 | 6056 ft | 265 kts | 170° |
| 2026-04-27 14:33 | 41.20785 | 19.59010 | 5710 ft | 263 kts | 169° |
| 2026-04-27 14:34 | 41.19078 | 19.59785 | 5334 ft | 262 kts | 143° |
| 2026-04-27 14:34 | 41.17883 | 19.61552 | 4991 ft | 257 kts | 115° |
| 2026-04-27 14:34 | 41.17448 | 19.63806 | 4644 ft | 254 kts | 88° |
| 2026-04-27 14:34 | 41.17606 | 19.66106 | 4317 ft | 252 kts | 82° |
| 2026-04-27 14:35 | 41.17827 | 19.68411 | 3988 ft | 251 kts | 83° |
| 2026-04-27 14:35 | 41.18029 | 19.70666 | 3776 ft | 244 kts | 83° |
| 2026-04-27 14:35 | 41.18524 | 19.72772 | 3502 ft | 239 kts | 57° |
| 2026-04-27 14:35 | 41.19736 | 19.74258 | 3006 ft | 246 kts | 26° |
| 2026-04-27 14:36 | 41.21384 | 19.74734 | 2733 ft | 242 kts | 0° |
| 2026-04-27 14:36 | 41.23027 | 19.74570 | 2715 ft | 236 kts | 353° |
| 2026-04-27 14:36 | 41.24644 | 19.74277 | 2701 ft | 229 kts | 353° |
| 2026-04-27 14:36 | 41.26168 | 19.74026 | 2690 ft | 221 kts | 354° |
| 2026-04-27 14:37 | 41.27672 | 19.73821 | 2803 ft | 206 kts | 354° |
| 2026-04-27 14:37 | 41.29027 | 19.73648 | 2649 ft | 189 kts | 355° |
| 2026-04-27 14:37 | 41.30299 | 19.73491 | 2413 ft | 175 kts | 355° |
| 2026-04-27 14:37 | 41.31474 | 19.73347 | 2102 ft | 167 kts | 355° |
| 2026-04-27 14:38 | 41.32603 | 19.73199 | 1872 ft | 161 kts | 355° |
| 2026-04-27 14:38 | 41.33679 | 19.73056 | 1614 ft | 152 kts | 354° |
| 2026-04-27 14:38 | 41.34690 | 19.72924 | 1408 ft | 150 kts | 354° |
| 2026-04-27 14:38 | 41.35690 | 19.72794 | 1172 ft | 148 kts | 354° |
| 2026-04-27 14:39 | 41.36676 | 19.72667 | 957 ft | 147 kts | 353° |
| 2026-04-27 14:39 | 41.37666 | 19.72538 | 733 ft | 146 kts | 353° |
| 2026-04-27 14:39 | 41.38683 | 19.72407 | 506 ft | 146 kts | 353° |
| 2026-04-27 14:39 | 41.39703 | 19.72283 | 284 ft | 145 kts | 354° |
| 2026-04-27 14:40 | 41.40691 | 19.72162 | 137 ft | 139 kts | 353° |
| 2026-04-27 14:40 | 41.41428 | 19.72059 | 131 ft | 84 kts | 353° |
| 2026-04-27 14:40 | 41.41954 | 19.71994 | 126 ft | 61 kts | 353° |
| 2026-04-27 14:40 | 41.42238 | 19.71954 | 122 ft | 30 kts | 350° |
| 2026-04-27 14:41 | 41.42287 | 19.71874 | 122 ft | 9 kts | 262° |
| 2026-04-27 14:41 | 41.42278 | 19.71781 | 121 ft | 11 kts | 262° |
| 2026-04-27 14:41 | 41.42268 | 19.71671 | 120 ft | 12 kts | 262° |
| 2026-04-27 14:41 | 41.42258 | 19.71563 | 120 ft | 9 kts | 270° |
| 2026-04-27 14:42 | 41.42263 | 19.71507 | 120 ft | 3 kts | 277° |
| 2026-04-27 14:42 | 41.42262 | 19.71481 | 120 ft | 0 kts | 264° |